createdAt,value
2022-09-10T00:02:36.336Z,14.98
2022-09-10T00:07:40.156Z,14.95
2022-09-10T00:12:43.905Z,15.01
2022-09-10T00:17:49.007Z,15.02
2022-09-10T00:22:53.928Z,15.07
2022-09-10T00:27:57.723Z,15.09
2022-09-10T00:33:02.892Z,15.13
2022-09-10T00:38:07.032Z,15.16
2022-09-10T00:43:13.665Z,15.20
2022-09-10T00:48:23.603Z,15.23
2022-09-10T00:53:29.614Z,15.25
2022-09-10T00:58:33.765Z,15.25
2022-09-10T01:03:40.542Z,15.21
2022-09-10T01:08:44.206Z,15.20
2022-09-10T01:14:05.307Z,15.20
2022-09-10T01:19:32.801Z,15.18
2022-09-10T01:24:51.774Z,15.16
2022-09-10T01:30:03.653Z,15.07
2022-09-10T01:35:17.886Z,15.09
2022-09-10T01:40:29.572Z,15.08
2022-09-10T01:45:45.968Z,15.10
2022-09-10T01:51:04.427Z,15.11
2022-09-10T01:56:20.494Z,15.07
2022-09-10T02:01:30.396Z,15.02
2022-09-10T02:06:38.900Z,15.07
2022-09-10T02:11:48.767Z,15.02
2022-09-10T02:16:58.750Z,15.01
2022-09-10T02:22:03.076Z,15.02
2022-09-10T02:27:07.678Z,15.09
2022-09-10T02:32:13.404Z,15.08
2022-09-10T02:37:17.458Z,15.08
2022-09-10T02:42:22.203Z,15.07
2022-09-10T02:47:28.870Z,15.11
2022-09-10T02:52:33.257Z,15.09
2022-09-10T02:57:37.372Z,15.09
2022-09-10T03:02:42.386Z,15.10
2022-09-10T03:07:48.234Z,15.10
2022-09-10T03:12:54.351Z,15.12
2022-09-10T03:17:59.432Z,15.11
2022-09-10T03:23:03.517Z,15.10
2022-09-10T03:28:07.372Z,15.15
2022-09-10T03:33:13.512Z,15.13
2022-09-10T03:38:17.443Z,15.07
2022-09-10T03:43:22.947Z,15.13
2022-09-10T03:48:28.149Z,15.11
2022-09-10T03:53:32.238Z,15.14
2022-09-10T03:58:37.434Z,15.20
2022-09-10T04:03:43.180Z,15.19
2022-09-10T04:08:50.484Z,15.17
2022-09-10T04:13:56.739Z,15.12
2022-09-10T04:19:02.043Z,15.11
2022-09-10T04:24:09.681Z,15.13
2022-09-10T04:29:13.957Z,15.12
2022-09-10T04:34:19.404Z,15.10
2022-09-10T04:39:23.174Z,15.16
2022-09-10T04:44:27.850Z,15.16
2022-09-10T04:49:33.086Z,15.12
2022-09-10T04:54:37.420Z,15.09
2022-09-10T04:59:41.271Z,15.10
2022-09-10T05:04:46.561Z,15.15
2022-09-10T05:09:50.482Z,15.17
2022-09-10T05:14:55.098Z,15.19
2022-09-10T05:20:00.282Z,15.21
2022-09-10T05:25:06.671Z,15.22
2022-09-10T05:30:11.295Z,15.29
2022-09-10T05:35:16.639Z,15.29
2022-09-10T05:40:21.854Z,15.35
2022-09-10T05:45:26.885Z,15.36
2022-09-10T05:50:32.825Z,15.36
2022-09-10T05:55:36.750Z,15.25
2022-09-10T06:00:44.058Z,15.35
2022-09-10T06:05:55.758Z,15.29
2022-09-10T06:11:02.561Z,15.31
2022-09-10T06:16:07.806Z,15.24
2022-09-10T06:21:16.163Z,15.25
2022-09-10T06:26:20.408Z,15.25
2022-09-10T06:31:25.141Z,15.25
2022-09-10T06:36:31.319Z,15.32
2022-09-10T06:41:36.952Z,15.34
2022-09-10T06:47:19.654Z,15.36
2022-09-10T06:52:08.308Z,15.42
2022-09-10T06:57:13.913Z,15.36
2022-09-10T07:02:18.124Z,15.52
2022-09-10T07:07:23.728Z,15.47
2022-09-10T07:12:27.516Z,15.53
2022-09-10T07:17:35.457Z,15.59
2022-09-10T07:22:42.667Z,15.71
2022-09-10T07:27:47.122Z,15.72
2022-09-10T07:32:51.136Z,15.78
2022-09-10T07:37:59.107Z,15.83
2022-09-10T07:43:03.919Z,15.90
2022-09-10T07:48:07.706Z,15.95
2022-09-10T07:53:13.689Z,15.99
2022-09-10T07:58:17.431Z,16.18
2022-09-10T08:03:22.371Z,16.23
2022-09-10T08:08:31.632Z,16.27
2022-09-10T08:13:37.395Z,16.29
2022-09-10T08:18:41.979Z,16.37
2022-09-10T08:23:51.846Z,16.31
2022-09-10T08:28:57.941Z,16.17
2022-09-10T08:34:03.519Z,16.17
2022-09-10T08:39:12.019Z,16.22
2022-09-10T08:44:27.779Z,16.34
2022-09-10T08:49:37.760Z,16.49
2022-09-10T08:54:50.145Z,16.59
2022-09-10T08:59:57.557Z,16.88
2022-09-10T09:05:04.172Z,16.94
2022-09-10T09:10:21.711Z,17.08
2022-09-10T09:15:32.108Z,17.11
2022-09-10T09:20:44.914Z,17.22
2022-09-10T09:25:52.663Z,17.10
2022-09-10T09:30:59.455Z,17.20
2022-09-10T09:36:05.899Z,17.36
2022-09-10T09:41:19.495Z,17.66
2022-09-10T09:46:24.748Z,17.86
2022-09-10T09:51:35.489Z,17.96
2022-09-10T09:56:45.594Z,18.15
2022-09-10T10:01:49.438Z,18.10
2022-09-10T10:06:57.773Z,18.11
2022-09-10T10:12:05.781Z,18.35
2022-09-10T10:17:29.670Z,18.50
2022-09-10T10:22:33.804Z,18.81
2022-09-10T10:27:45.266Z,18.96
2022-09-10T10:32:53.817Z,18.72
2022-09-10T10:38:21.066Z,18.58
2022-09-10T10:43:39.439Z,18.31
2022-09-10T10:49:03.546Z,18.48
2022-09-10T10:54:25.740Z,18.48
2022-09-10T10:59:47.205Z,18.50
2022-09-10T11:04:52.698Z,18.39
2022-09-10T11:10:02.521Z,18.37
2022-09-10T11:15:21.890Z,18.29
2022-09-10T11:20:30.462Z,18.26
2022-09-10T11:25:40.619Z,18.24
2022-09-10T11:30:51.490Z,18.58
2022-09-10T11:36:01.323Z,20.24
2022-09-10T11:41:10.481Z,21.22
2022-09-10T11:46:19.581Z,21.40
2022-09-10T11:51:28.094Z,22.15
2022-09-10T11:56:53.000Z,22.90
2022-09-10T12:02:27.013Z,23.07
2022-09-10T12:07:46.931Z,23.57
2022-09-10T12:12:53.261Z,24.29
2022-09-10T12:18:02.390Z,24.33
2022-09-10T12:23:07.240Z,25.34
2022-09-10T12:28:52.001Z,26.12
2022-09-10T12:34:19.520Z,25.60
2022-09-10T12:39:24.807Z,24.54
2022-09-10T12:44:49.760Z,22.86
2022-09-10T12:49:57.737Z,22.40
2022-09-10T12:55:13.363Z,22.06
2022-09-10T13:00:22.954Z,23.44
2022-09-10T13:05:34.681Z,23.52
2022-09-10T13:10:39.914Z,25.25
2022-09-10T13:15:52.075Z,26.65
2022-09-10T13:20:58.726Z,25.79
2022-09-10T13:26:49.207Z,24.70
2022-09-10T13:32:01.460Z,23.60
2022-09-10T13:37:27.818Z,22.97
2022-09-10T13:42:56.312Z,22.60
2022-09-10T13:48:02.697Z,22.16
2022-09-10T13:58:17.524Z,21.64
2022-09-10T14:03:23.952Z,21.45
2022-09-10T14:08:32.608Z,21.37
2022-09-10T14:13:40.239Z,21.34
2022-09-10T14:18:48.519Z,21.28
2022-09-10T14:23:56.211Z,22.97
2022-09-10T14:29:01.633Z,24.63
2022-09-10T14:34:41.734Z,24.66
2022-09-10T14:39:47.419Z,25.57
2022-09-10T14:44:51.184Z,26.15
2022-09-10T14:49:55.129Z,25.74
2022-09-10T14:55:00.132Z,26.06
2022-09-10T15:00:04.071Z,26.34
2022-09-10T15:05:14.290Z,25.95
2022-09-10T15:10:19.498Z,25.18
2022-09-10T15:15:25.070Z,24.30
2022-09-10T15:20:28.837Z,23.93
2022-09-10T15:25:38.952Z,25.55
2022-09-10T15:30:42.722Z,25.05
2022-09-10T15:35:47.977Z,24.85
2022-09-10T15:40:56.432Z,25.86
2022-09-10T15:46:02.994Z,26.93
2022-09-10T15:51:09.107Z,27.76
2022-09-10T15:56:15.060Z,28.43
2022-09-10T16:01:19.297Z,28.60
2022-09-10T16:06:24.095Z,29.03
2022-09-10T16:11:31.122Z,28.84
2022-09-10T16:16:37.260Z,27.81
2022-09-10T16:21:41.303Z,27.18
2022-09-10T16:26:47.976Z,25.95
2022-09-10T16:31:52.180Z,25.32
2022-09-10T16:36:55.909Z,24.92
2022-09-10T16:42:01.054Z,24.63
2022-09-10T16:47:04.933Z,24.18
2022-09-10T16:52:09.209Z,24.00
2022-09-10T16:57:14.265Z,23.83
2022-09-10T17:02:18.029Z,23.75
2022-09-10T17:07:21.810Z,23.62
2022-09-10T17:12:27.297Z,23.63
2022-09-10T17:17:31.026Z,23.46
2022-09-10T17:22:35.289Z,23.43
2022-09-10T17:27:40.452Z,23.34
2022-09-10T17:32:44.153Z,23.06
2022-09-10T17:37:47.961Z,22.73
2022-09-10T17:42:53.763Z,22.55
2022-09-10T17:47:57.451Z,22.29
2022-09-10T17:53:02.157Z,21.99
2022-09-10T17:58:07.328Z,21.76
2022-09-10T18:03:14.390Z,21.43
2022-09-10T18:08:19.286Z,21.23
2022-09-10T18:13:24.492Z,21.03
2022-09-10T18:18:28.329Z,20.89
2022-09-10T18:23:32.098Z,20.70
2022-09-10T18:28:37.151Z,20.50
2022-09-10T18:33:42.069Z,20.22
2022-09-10T18:38:47.180Z,20.03
2022-09-10T18:43:54.009Z,20.00
2022-09-10T18:48:58.232Z,19.79
2022-09-10T18:54:04.103Z,19.62
2022-09-10T18:59:13.105Z,19.58
2022-09-10T19:04:20.144Z,19.47
2022-09-10T19:09:25.711Z,19.49
2022-09-10T19:14:32.499Z,19.42
2022-09-10T19:19:36.392Z,19.38
2022-09-10T19:24:56.164Z,19.28
2022-09-10T19:30:01.399Z,19.25
2022-09-10T19:35:05.668Z,19.11
2022-09-10T19:40:11.904Z,19.02
2022-09-10T19:45:17.134Z,18.93
2022-09-10T19:50:23.382Z,18.81
2022-09-10T19:55:27.391Z,18.73
2022-09-10T20:00:46.490Z,18.66
2022-09-10T20:05:50.888Z,18.57
2022-09-10T20:10:54.636Z,18.47
2022-09-10T20:16:02.676Z,18.40
2022-09-10T20:21:11.993Z,18.29
2022-09-10T20:26:18.080Z,18.20
2022-09-10T20:31:24.335Z,18.12
2022-09-10T20:36:29.393Z,18.02
2022-09-10T20:41:33.146Z,17.93
2022-09-10T20:46:38.369Z,17.85
2022-09-10T20:51:42.647Z,17.78
2022-09-10T20:56:46.860Z,17.74
2022-09-10T21:01:52.317Z,17.70
2022-09-10T21:06:56.202Z,17.62
2022-09-10T21:11:59.925Z,17.54
2022-09-10T21:17:05.044Z,17.50
2022-09-10T21:22:08.728Z,17.43
2022-09-10T21:27:12.434Z,17.40
2022-09-10T21:32:17.810Z,17.32
2022-09-10T21:37:21.554Z,17.22
2022-09-10T21:42:25.237Z,17.16
2022-09-10T21:47:30.432Z,17.09
2022-09-10T21:52:34.133Z,17.07
2022-09-10T21:57:37.890Z,17.01
2022-09-10T22:02:43.113Z,16.95
2022-09-10T22:07:47.032Z,16.94
2022-09-10T22:12:50.723Z,16.88
2022-09-10T22:17:55.988Z,16.81
2022-09-10T22:22:59.716Z,16.75
2022-09-10T22:28:10.062Z,16.73
2022-09-10T22:33:15.277Z,16.69
2022-09-10T22:38:19.699Z,16.66
2022-09-10T22:43:25.019Z,16.63
2022-09-10T22:48:29.984Z,16.56
2022-09-10T22:53:33.716Z,16.53
2022-09-10T22:58:37.906Z,16.43
2022-09-10T23:03:43.700Z,16.35
2022-09-10T23:08:50.610Z,16.29
2022-09-10T23:13:57.415Z,16.18
2022-09-10T23:19:04.843Z,16.09
2022-09-10T23:24:09.271Z,16.02
2022-09-10T23:29:13.991Z,15.98
2022-09-10T23:34:20.496Z,15.90
2022-09-10T23:39:25.326Z,15.86
2022-09-10T23:44:29.305Z,15.80
2022-09-10T23:49:34.330Z,15.77
2022-09-10T23:54:38.814Z,15.71
2022-09-10T23:59:42.491Z,15.64
